createdAt,value
2022-09-09T00:01:09.202Z,13.55
2022-09-09T00:04:14.529Z,13.69
2022-09-09T00:07:20.893Z,13.65
2022-09-09T00:10:25.205Z,13.69
2022-09-09T00:13:30.970Z,13.76
2022-09-09T00:16:35.594Z,13.79
2022-09-09T00:19:40.282Z,13.83
2022-09-09T00:22:46.223Z,13.89
2022-09-09T00:25:52.581Z,13.95
2022-09-09T00:29:00.778Z,13.99
2022-09-09T00:32:10.034Z,13.91
2022-09-09T00:35:17.146Z,13.93
2022-09-09T00:38:24.715Z,13.86
2022-09-09T00:41:30.938Z,13.69
2022-09-09T00:44:33.525Z,12.99
2022-09-09T00:47:47.134Z,12.59
2022-09-09T00:50:52.130Z,12.57
2022-09-09T00:54:06.808Z,12.44
2022-09-09T00:57:17.102Z,12.07
2022-09-09T01:00:22.945Z,12.51
2022-09-09T01:03:34.315Z,12.81
2022-09-09T01:06:38.307Z,13.05
2022-09-09T01:09:46.569Z,13.22
2022-09-09T01:12:48.405Z,13.40
2022-09-09T01:15:50.429Z,13.53
2022-09-09T01:18:54.573Z,13.55
2022-09-09T01:22:02.241Z,13.56
2022-09-09T01:25:11.067Z,13.61
2022-09-09T01:28:16.927Z,13.57
2022-09-09T01:31:19.762Z,13.54
2022-09-09T01:34:22.380Z,13.58
2022-09-09T01:37:23.968Z,13.46
2022-09-09T01:40:26.067Z,12.88
2022-09-09T01:43:29.315Z,12.42
2022-09-09T01:46:31.194Z,12.43
2022-09-09T01:49:32.955Z,12.75
2022-09-09T01:52:37.194Z,12.86
2022-09-09T01:55:39.886Z,12.65
2022-09-09T01:58:48.906Z,12.49
2022-09-09T02:01:57.631Z,12.69
2022-09-09T02:05:12.892Z,12.88
2022-09-09T02:08:18.509Z,12.65
2022-09-09T02:11:20.756Z,12.71
2022-09-09T02:14:26.138Z,12.75
2022-09-09T02:17:32.149Z,12.82
2022-09-09T02:20:35.184Z,12.59
2022-09-09T02:23:37.799Z,12.58
2022-09-09T02:26:41.361Z,12.59
2022-09-09T02:29:44.833Z,12.27
2022-09-09T02:32:46.876Z,12.35
2022-09-09T02:35:49.489Z,12.58
2022-09-09T02:38:51.147Z,12.81
2022-09-09T02:41:52.838Z,12.91
2022-09-09T02:44:55.921Z,12.61
2022-09-09T02:48:02.037Z,12.53
2022-09-09T02:51:07.105Z,12.69
2022-09-09T02:54:11.838Z,12.67
2022-09-09T02:57:17.023Z,12.69
2022-09-09T03:00:25.067Z,12.91
2022-09-09T03:03:26.786Z,13.05
2022-09-09T03:06:28.411Z,13.20
2022-09-09T03:09:30.220Z,13.29
2022-09-09T03:12:31.780Z,13.40
2022-09-09T03:15:35.011Z,13.37
2022-09-09T03:18:36.783Z,13.45
2022-09-09T03:21:38.562Z,13.46
2022-09-09T03:24:40.189Z,13.46
2022-09-09T03:27:41.773Z,13.42
2022-09-09T03:30:45.016Z,13.42
2022-09-09T03:33:46.652Z,13.44
2022-09-09T03:36:48.291Z,13.38
2022-09-09T03:39:49.925Z,13.40
2022-09-09T03:42:51.685Z,13.49
2022-09-09T03:45:54.949Z,13.46
2022-09-09T03:48:56.759Z,13.49
2022-09-09T03:51:58.435Z,13.52
2022-09-09T03:55:00.066Z,13.59
2022-09-09T03:58:01.701Z,13.63
2022-09-09T04:01:05.481Z,13.56
2022-09-09T04:04:07.170Z,13.54
2022-09-09T04:07:08.839Z,13.51
2022-09-09T04:10:11.708Z,13.50
2022-09-09T04:13:13.696Z,13.51
2022-09-09T04:16:16.807Z,13.46
2022-09-09T04:19:18.547Z,13.46
2022-09-09T04:22:20.140Z,13.47
2022-09-09T04:25:21.778Z,13.45
2022-09-09T04:28:24.486Z,13.48
2022-09-09T04:31:27.593Z,13.46
2022-09-09T04:34:29.522Z,13.51
2022-09-09T04:37:31.595Z,12.76
2022-09-09T04:40:33.429Z,12.88
2022-09-09T04:43:35.113Z,12.99
2022-09-09T04:46:38.168Z,12.86
2022-09-09T04:49:39.780Z,13.00
2022-09-09T04:52:41.388Z,13.07
2022-09-09T04:55:43.000Z,13.06
2022-09-09T04:58:45.795Z,13.12
2022-09-09T05:01:49.077Z,13.22
2022-09-09T05:04:50.738Z,13.32
2022-09-09T05:07:52.358Z,13.42
2022-09-09T05:10:53.978Z,13.49
2022-09-09T05:13:55.586Z,13.50
2022-09-09T05:16:58.545Z,13.59
2022-09-09T05:20:00.308Z,13.66
2022-09-09T05:23:01.849Z,13.71
2022-09-09T05:26:04.164Z,13.71
2022-09-09T05:29:05.773Z,13.69
2022-09-09T05:32:11.482Z,13.74
2022-09-09T05:35:16.545Z,13.74
2022-09-09T05:38:18.150Z,13.76
2022-09-09T05:41:19.761Z,13.80
2022-09-09T05:44:21.419Z,13.81
2022-09-09T05:47:24.441Z,13.82
2022-09-09T05:50:31.046Z,13.89
2022-09-09T05:53:33.490Z,13.78
2022-09-09T05:56:35.142Z,13.83
2022-09-09T05:59:37.753Z,13.74
2022-09-09T06:02:40.848Z,13.50
2022-09-09T06:05:42.563Z,13.55
2022-09-09T06:08:44.943Z,13.65
2022-09-09T06:11:48.136Z,13.69
2022-09-09T06:14:49.744Z,13.76
2022-09-09T06:17:56.360Z,13.63
2022-09-09T06:20:58.646Z,13.78
2022-09-09T06:24:01.349Z,13.87
2022-09-09T06:27:03.110Z,13.94
2022-09-09T06:30:05.037Z,13.91
2022-09-09T06:33:08.031Z,13.98
2022-09-09T06:36:12.151Z,14.07
2022-09-09T06:39:14.992Z,14.18
2022-09-09T06:42:17.224Z,14.28
2022-09-09T06:45:18.833Z,14.25
2022-09-09T06:48:21.973Z,14.37
2022-09-09T06:51:24.463Z,14.40
2022-09-09T06:54:26.323Z,14.41
2022-09-09T06:57:36.951Z,14.44
2022-09-09T07:00:39.243Z,14.41
2022-09-09T07:03:42.957Z,14.41
2022-09-09T07:06:45.409Z,14.49
2022-09-09T07:09:47.092Z,14.57
2022-09-09T07:12:51.495Z,14.53
2022-09-09T07:15:53.139Z,14.47
2022-09-09T07:18:56.607Z,14.55
2022-09-09T07:21:58.236Z,14.60
2022-09-09T07:24:59.835Z,14.57
2022-09-09T07:28:01.638Z,14.57
2022-09-09T07:31:03.562Z,14.52
2022-09-09T07:34:06.644Z,14.52
2022-09-09T07:37:08.328Z,14.58
2022-09-09T07:40:10.005Z,14.62
2022-09-09T07:43:14.370Z,14.63
2022-09-09T07:46:19.797Z,14.59
2022-09-09T07:49:28.525Z,14.67
2022-09-09T07:52:31.466Z,14.73
2022-09-09T07:55:33.083Z,14.81
2022-09-09T07:58:38.271Z,14.91
2022-09-09T08:01:41.334Z,15.04
2022-09-09T08:04:44.454Z,15.03
2022-09-09T08:07:46.085Z,15.05
2022-09-09T08:10:47.754Z,15.06
2022-09-09T08:13:53.992Z,15.08
2022-09-09T08:16:57.690Z,15.08
2022-09-09T08:20:00.737Z,15.07
2022-09-09T08:23:02.341Z,15.12
2022-09-09T08:26:04.693Z,15.15
2022-09-09T08:29:07.568Z,15.16
2022-09-09T08:32:09.156Z,15.19
2022-09-09T08:35:12.172Z,15.20
2022-09-09T08:38:13.756Z,15.24
2022-09-09T08:41:35.989Z,15.24
2022-09-09T08:44:48.603Z,15.27
2022-09-09T08:47:56.140Z,15.30
2022-09-09T08:50:59.241Z,15.29
2022-09-09T08:54:03.064Z,15.26
2022-09-09T08:57:08.591Z,15.29
2022-09-09T09:00:11.247Z,15.38
2022-09-09T09:03:16.954Z,15.36
2022-09-09T09:06:27.622Z,15.30
2022-09-09T09:09:32.770Z,15.34
2022-09-09T09:12:37.579Z,15.36
2022-09-09T09:15:39.588Z,15.36
2022-09-09T09:18:41.309Z,15.37
2022-09-09T09:21:45.164Z,15.41
2022-09-09T09:24:52.665Z,15.45
2022-09-09T09:27:59.093Z,15.42
2022-09-09T09:31:04.327Z,15.47
2022-09-09T09:34:05.967Z,15.53
2022-09-09T09:37:13.523Z,15.51
2022-09-09T09:40:16.294Z,15.57
2022-09-09T09:43:21.128Z,15.57
2022-09-09T09:46:23.956Z,15.53
2022-09-09T09:49:25.683Z,15.66
2022-09-09T09:52:29.568Z,15.72
2022-09-09T09:55:32.551Z,15.74
2022-09-09T09:58:35.248Z,15.83
2022-09-09T10:01:37.337Z,15.85
2022-09-09T10:04:42.958Z,15.79
2022-09-09T10:07:47.406Z,15.82
2022-09-09T10:10:53.703Z,15.83
2022-09-09T10:14:01.580Z,15.87
2022-09-09T10:17:14.228Z,15.70
2022-09-09T10:20:22.037Z,15.74
2022-09-09T10:23:35.696Z,15.76
2022-09-09T10:26:41.407Z,15.72
2022-09-09T10:29:52.408Z,15.79
2022-09-09T10:33:02.518Z,15.67
2022-09-09T10:36:13.011Z,15.74
2022-09-09T10:39:24.724Z,15.57
2022-09-09T10:42:31.912Z,15.67
2022-09-09T10:45:38.314Z,15.73
2022-09-09T10:48:57.647Z,15.81
2022-09-09T10:52:04.196Z,15.83
2022-09-09T10:55:13.008Z,15.93
2022-09-09T10:58:21.213Z,15.71
2022-09-09T11:01:31.932Z,15.56
2022-09-09T11:04:41.458Z,15.45
2022-09-09T11:07:50.230Z,15.54
2022-09-09T11:11:01.232Z,15.49
2022-09-09T11:14:06.607Z,15.36
2022-09-09T11:17:16.226Z,15.29
2022-09-09T11:20:21.390Z,15.26
2022-09-09T11:23:29.029Z,15.19
2022-09-09T11:26:37.729Z,15.13
2022-09-09T11:29:56.774Z,15.11
2022-09-09T11:33:24.628Z,15.33
2022-09-09T11:36:48.357Z,15.29
2022-09-09T11:40:16.577Z,15.41
2022-09-09T11:43:25.104Z,15.54
2022-09-09T11:46:35.338Z,15.47
2022-09-09T11:49:45.715Z,15.73
2022-09-09T11:52:52.118Z,15.62
2022-09-09T11:56:11.216Z,15.54
2022-09-09T11:59:23.329Z,15.63
2022-09-09T12:02:27.491Z,15.55
2022-09-09T12:05:39.342Z,15.70
2022-09-09T12:08:44.136Z,15.53
2022-09-09T12:11:46.006Z,15.73
2022-09-09T12:14:57.683Z,15.68
2022-09-09T12:18:03.289Z,15.67
2022-09-09T12:21:08.802Z,15.37
2022-09-09T12:24:10.675Z,15.51
2022-09-09T12:27:15.783Z,15.48
2022-09-09T12:30:18.973Z,15.65
2022-09-09T12:33:20.722Z,15.53
2022-09-09T12:36:24.845Z,15.41
2022-09-09T12:39:30.683Z,15.47
2022-09-09T12:42:32.456Z,15.42
2022-09-09T12:45:35.447Z,15.57
2022-09-09T12:48:38.305Z,15.65
2022-09-09T12:51:39.955Z,15.69
2022-09-09T12:54:45.088Z,15.73
2022-09-09T12:57:46.817Z,15.56
2022-09-09T13:00:53.902Z,15.64
2022-09-09T13:03:55.876Z,15.51
2022-09-09T13:07:06.496Z,15.47
2022-09-09T13:10:13.255Z,15.55
2022-09-09T13:13:22.014Z,15.50
2022-09-09T13:16:27.239Z,15.45
2022-09-09T13:19:30.497Z,15.55
2022-09-09T13:22:34.227Z,15.48
2022-09-09T13:25:36.255Z,15.40
2022-09-09T13:28:39.494Z,15.52
2022-09-09T13:31:42.580Z,15.45
2022-09-09T13:34:51.723Z,15.14
2022-09-09T13:37:53.363Z,15.05
2022-09-09T13:40:56.332Z,15.08
2022-09-09T13:43:58.108Z,15.04
2022-09-09T13:47:10.043Z,15.18
2022-09-09T13:50:19.857Z,15.27
2022-09-09T13:53:21.436Z,15.32
2022-09-09T13:56:23.065Z,15.30
2022-09-09T13:59:28.073Z,15.23
2022-09-09T14:02:41.145Z,15.27
2022-09-09T14:05:42.895Z,15.29
2022-09-09T14:08:44.597Z,15.32
2022-09-09T14:11:46.270Z,15.41
2022-09-09T14:14:47.876Z,15.46
2022-09-09T14:17:50.912Z,15.57
2022-09-09T14:20:52.628Z,15.51
2022-09-09T14:23:54.372Z,15.47
2022-09-09T14:26:56.435Z,15.49
2022-09-09T14:29:58.059Z,15.60
2022-09-09T14:33:01.615Z,15.63
2022-09-09T14:36:04.815Z,15.64
2022-09-09T14:39:06.422Z,15.72
2022-09-09T14:42:08.120Z,15.70
2022-09-09T14:45:10.249Z,15.65
2022-09-09T14:48:13.764Z,15.71
2022-09-09T14:51:16.766Z,15.79
2022-09-09T14:54:18.441Z,15.82
2022-09-09T14:57:20.064Z,15.85
2022-09-09T15:00:21.881Z,15.89
2022-09-09T15:03:25.068Z,15.86
2022-09-09T15:06:27.587Z,15.93
2022-09-09T15:09:29.223Z,15.85
2022-09-09T15:12:30.822Z,15.80
2022-09-09T15:15:33.948Z,15.84
2022-09-09T15:18:36.941Z,15.80
2022-09-09T15:21:38.718Z,15.78
2022-09-09T15:24:40.336Z,15.73
2022-09-09T15:27:41.933Z,15.74
2022-09-09T15:30:43.556Z,15.78
2022-09-09T15:33:49.332Z,15.76
2022-09-09T15:36:50.973Z,15.81
2022-09-09T15:39:52.734Z,15.83
2022-09-09T15:42:54.390Z,15.83
2022-09-09T15:46:00.250Z,15.93
2022-09-09T15:49:06.068Z,16.01
2022-09-09T15:52:07.831Z,15.97
2022-09-09T15:55:09.445Z,16.02
2022-09-09T15:58:11.023Z,16.05
2022-09-09T16:01:12.723Z,16.17
2022-09-09T16:04:15.819Z,16.41
2022-09-09T16:07:17.419Z,16.46
2022-09-09T16:10:19.044Z,16.64
2022-09-09T16:13:20.694Z,16.56
2022-09-09T16:16:23.195Z,16.80
2022-09-09T16:19:26.221Z,17.22
2022-09-09T16:22:27.846Z,17.98
2022-09-09T16:25:29.495Z,18.48
2022-09-09T16:28:31.134Z,18.34
2022-09-09T16:31:33.005Z,17.86
2022-09-09T16:34:36.227Z,17.64
2022-09-09T16:37:37.861Z,17.72
2022-09-09T16:40:39.756Z,17.56
2022-09-09T16:43:41.923Z,17.26
2022-09-09T16:46:44.253Z,17.16
2022-09-09T16:49:47.335Z,16.86
2022-09-09T16:52:48.892Z,16.88
2022-09-09T16:55:50.497Z,16.82
2022-09-09T16:58:52.812Z,16.68
2022-09-09T17:01:54.534Z,16.58
2022-09-09T17:04:57.653Z,16.54
2022-09-09T17:07:59.316Z,16.41
2022-09-09T17:11:00.944Z,16.32
2022-09-09T17:14:02.574Z,16.30
2022-09-09T17:17:24.721Z,16.17
2022-09-09T17:20:27.481Z,16.13
2022-09-09T17:23:29.257Z,16.11
2022-09-09T17:26:31.765Z,16.07
2022-09-09T17:29:33.426Z,16.06
2022-09-09T17:32:35.015Z,15.94
2022-09-09T17:35:38.071Z,15.92
2022-09-09T17:38:39.908Z,15.82
2022-09-09T17:41:41.707Z,15.85
2022-09-09T17:44:43.339Z,15.88
2022-09-09T17:47:44.913Z,15.85
2022-09-09T17:50:47.925Z,15.80
2022-09-09T17:53:50.271Z,15.83
2022-09-09T17:56:52.009Z,15.80
2022-09-09T17:59:53.646Z,15.84
2022-09-09T18:02:55.369Z,15.83
2022-09-09T18:06:01.607Z,15.74
2022-09-09T18:09:05.241Z,15.77
2022-09-09T18:12:07.084Z,15.70
2022-09-09T18:15:09.042Z,15.62
2022-09-09T18:18:10.640Z,15.58
2022-09-09T18:21:13.750Z,15.53
2022-09-09T18:24:16.291Z,15.52
2022-09-09T18:27:18.216Z,15.54
2022-09-09T18:30:20.726Z,15.48
2022-09-09T18:33:22.525Z,15.42
2022-09-09T18:36:26.800Z,15.40
2022-09-09T18:39:29.617Z,15.33
2022-09-09T18:42:31.593Z,15.35
2022-09-09T18:45:35.562Z,15.39
2022-09-09T18:48:37.710Z,15.46
2022-09-09T18:51:41.615Z,15.50
2022-09-09T18:54:43.558Z,15.53
2022-09-09T18:57:46.770Z,15.45
2022-09-09T19:00:48.826Z,15.47
2022-09-09T19:03:51.108Z,15.53
2022-09-09T19:06:54.502Z,15.45
2022-09-09T19:09:56.113Z,15.53
2022-09-09T19:12:58.024Z,15.56
2022-09-09T19:16:03.089Z,15.60
2022-09-09T19:19:05.759Z,15.51
2022-09-09T19:22:09.027Z,15.57
2022-09-09T19:25:11.037Z,15.55
2022-09-09T19:28:12.911Z,15.46
2022-09-09T19:31:14.729Z,15.34
2022-09-09T19:34:16.526Z,15.32
2022-09-09T19:37:19.661Z,15.37
2022-09-09T19:40:24.394Z,15.36
2022-09-09T19:43:27.321Z,15.35
2022-09-09T19:46:29.652Z,15.36
2022-09-09T19:49:31.542Z,15.36
2022-09-09T19:52:34.533Z,15.39
2022-09-09T19:55:38.796Z,15.38
2022-09-09T19:58:41.047Z,15.44
2022-09-09T20:01:43.787Z,15.45
2022-09-09T20:04:45.551Z,15.48
2022-09-09T20:07:48.561Z,15.51
2022-09-09T20:10:50.837Z,15.47
2022-09-09T20:13:52.951Z,15.39
2022-09-09T20:16:54.626Z,15.41
2022-09-09T20:19:56.278Z,15.36
2022-09-09T20:22:59.345Z,15.37
2022-09-09T20:26:01.551Z,15.26
2022-09-09T20:29:04.000Z,15.18
2022-09-09T20:32:05.775Z,15.19
2022-09-09T20:35:07.710Z,15.27
2022-09-09T20:38:10.791Z,15.29
2022-09-09T20:41:13.219Z,15.16
2022-09-09T20:44:15.605Z,15.20
2022-09-09T20:47:17.328Z,15.13
2022-09-09T20:50:18.974Z,15.13
2022-09-09T20:53:21.944Z,15.10
2022-09-09T20:56:23.531Z,15.17
2022-09-09T20:59:26.348Z,15.20
2022-09-09T21:02:27.958Z,15.25
2022-09-09T21:05:30.139Z,15.25
2022-09-09T21:08:33.845Z,15.20
2022-09-09T21:11:35.650Z,15.11
2022-09-09T21:14:37.294Z,15.07
2022-09-09T21:17:38.919Z,14.92
2022-09-09T21:20:40.781Z,14.93
2022-09-09T21:23:43.755Z,14.95
2022-09-09T21:26:45.410Z,14.88
2022-09-09T21:29:47.027Z,14.75
2022-09-09T21:32:48.639Z,14.61
2022-09-09T21:35:50.493Z,14.33
2022-09-09T21:38:53.487Z,14.25
2022-09-09T21:41:55.129Z,14.35
2022-09-09T21:44:56.790Z,14.39
2022-09-09T21:47:58.397Z,14.40
2022-09-09T21:51:02.308Z,14.38
2022-09-09T21:54:05.851Z,14.44
2022-09-09T21:57:07.465Z,14.52
2022-09-09T22:00:09.664Z,14.57
2022-09-09T22:03:12.066Z,14.52
2022-09-09T22:06:15.075Z,14.60
2022-09-09T22:09:18.099Z,14.20
2022-09-09T22:12:19.840Z,14.24
2022-09-09T22:15:21.717Z,14.18
2022-09-09T22:18:23.419Z,14.06
2022-09-09T22:21:29.755Z,14.13
2022-09-09T22:24:32.770Z,14.28
2022-09-09T22:27:34.466Z,14.38
2022-09-09T22:30:36.445Z,14.44
2022-09-09T22:33:38.027Z,14.53
2022-09-09T22:36:39.650Z,14.55
2022-09-09T22:39:42.953Z,14.49
2022-09-09T22:42:45.412Z,14.48
2022-09-09T22:45:49.122Z,14.38
2022-09-09T22:48:50.736Z,14.42
2022-09-09T22:51:52.393Z,14.43
2022-09-09T22:54:55.406Z,14.37
2022-09-09T22:57:57.291Z,14.36
2022-09-09T23:00:59.397Z,14.47
2022-09-09T23:04:01.028Z,14.49
2022-09-09T23:07:02.694Z,14.30
2022-09-09T23:10:06.278Z,14.23
2022-09-09T23:13:07.906Z,14.25
2022-09-09T23:16:10.391Z,14.37
2022-09-09T23:19:13.448Z,14.12
2022-09-09T23:22:15.090Z,13.95
2022-09-09T23:25:18.139Z,13.93
2022-09-09T23:28:19.912Z,13.88
2022-09-09T23:31:22.273Z,13.89
2022-09-09T23:34:23.965Z,13.73
2022-09-09T23:37:25.696Z,13.61
2022-09-09T23:40:28.684Z,13.71
2022-09-09T23:43:30.387Z,13.69
2022-09-09T23:46:33.087Z,13.67
2022-09-09T23:49:35.384Z,13.66
2022-09-09T23:52:37.042Z,13.65
2022-09-09T23:55:40.152Z,13.71
2022-09-09T23:58:41.829Z,13.69
